Time;durP1;ratioP1;P1;durP2;ratioP2;P2;SDS_P1;SDS_P2;PMS_P1;PMS_P2;Temp;Humidity;BMP_temperature;BMP_pressure;BME280_temperature;BME280_humidity;BME280_pressure;Samples;Min_cycle;Max_cycle;Signal;HPM_P1;HPM_P2
2023/06/22 00:00:53;;;;;;;4.05;2.80;;;19.30;99.90;;;;;;5013777;28;20026;-40
2023/06/22 00:03:20;;;;;;;5.43;3.00;;;19.40;99.90;;;;;;5012527;28;20482;-39
2023/06/22 00:05:49;;;;;;;4.53;3.30;;;19.40;99.90;;;;;;5013629;28;20099;-38
2023/06/22 00:08:16;;;;;;;3.72;2.95;;;19.40;99.90;;;;;;5013677;28;20018;-39
2023/06/22 00:10:42;;;;;;;3.20;2.90;;;19.40;99.90;;;;;;5013889;28;20029;-38
2023/06/22 00:13:10;;;;;;;4.90;2.85;;;19.40;99.90;;;;;;5013407;28;20069;-38
2023/06/22 00:15:37;;;;;;;4.90;2.85;;;19.40;99.90;;;;;;5013585;28;20025;-38
2023/06/22 00:18:03;;;;;;;7.90;3.58;;;19.30;99.90;;;;;;5013505;28;20055;-38
2023/06/22 00:20:29;;;;;;;4.75;3.45;;;19.30;99.90;;;;;;5012162;28;20029;-38
2023/06/22 00:22:56;;;;;;;7.63;3.20;;;19.30;99.90;;;;;;5013461;28;20022;-41
2023/06/22 00:25:22;;;;;;;4.33;3.60;;;19.30;99.90;;;;;;5013262;28;20076;-38
2023/06/22 00:27:48;;;;;;;4.70;3.30;;;19.30;99.90;;;;;;5013340;28;20029;-38
2023/06/22 00:30:17;;;;;;;5.65;3.50;;;19.30;99.90;;;;;;5013334;28;20029;-48
2023/06/22 00:32:44;;;;;;;9.02;3.67;;;19.20;99.90;;;;;;5013289;28;20089;-38
2023/06/22 00:35:12;;;;;;;4.60;3.10;;;19.20;99.90;;;;;;5013252;28;20394;-37
2023/06/22 00:37:40;;;;;;;6.72;3.58;;;19.20;99.90;;;;;;5013256;28;20265;-38
2023/06/22 00:40:07;;;;;;;4.50;4.03;;;19.20;99.90;;;;;;5013437;28;20037;-36
2023/06/22 00:42:33;;;;;;;10.60;4.43;;;19.20;99.90;;;;;;5013153;28;20034;-38
2023/06/22 00:44:58;;;;;;;6.50;4.35;;;19.20;99.90;;;;;;5013088;28;20030;-38
2023/06/22 00:47:24;;;;;;;8.32;4.32;;;19.20;99.90;;;;;;5013138;28;20072;-38
2023/06/22 00:49:53;;;;;;;6.47;4.28;;;19.10;99.90;;;;;;5013117;28;20030;-38
2023/06/22 00:52:27;;;;;;;5.82;4.00;;;19.10;99.90;;;;;;5012863;28;20108;-39
2023/06/22 00:54:53;;;;;;;9.63;4.60;;;19.10;99.90;;;;;;5013311;28;20111;-38
2023/06/22 00:57:20;;;;;;;9.30;4.97;;;19.00;99.90;;;;;;5012986;28;20026;-39
2023/06/22 00:59:47;;;;;;;8.30;5.03;;;19.00;99.90;;;;;;5012915;28;20447;-40
2023/06/22 01:02:13;;;;;;;6.97;4.55;;;19.00;99.90;;;;;;5012875;28;20022;-39
2023/06/22 01:04:40;;;;;;;9.23;4.72;;;18.90;99.90;;;;;;5011810;28;20100;-36
2023/06/22 01:07:24;;;;;;;6.28;4.35;;;18.90;99.90;;;;;;5012417;28;20360;-38
2023/06/22 01:10:23;;;;;;;5.82;4.25;;;18.90;99.90;;;;;;5012859;28;20530;-38
2023/06/22 01:12:53;;;;;;;7.90;4.75;;;18.90;99.90;;;;;;5011679;28;20066;-38
2023/06/22 01:15:30;;;;;;;8.27;5.25;;;18.80;99.90;;;;;;5011604;28;20030;-39
2023/06/22 01:17:58;;;;;;;13.40;5.13;;;18.80;99.90;;;;;;5012915;28;20038;-39
2023/06/22 01:20:27;;;;;;;6.60;4.63;;;18.80;99.90;;;;;;5013047;28;20028;-39
2023/06/22 01:22:52;;;;;;;10.85;5.47;;;18.70;99.90;;;;;;5012816;28;20054;-40
2023/06/22 01:25:28;;;;;;;8.68;5.32;;;18.70;99.90;;;;;;5012581;28;20073;-38
2023/06/22 01:28:42;;;;;;;8.77;4.75;;;18.70;99.90;;;;;;5012817;28;20536;-40
2023/06/22 01:31:10;;;;;;;10.75;5.47;;;18.70;99.90;;;;;;5011636;28;20157;-39
2023/06/22 01:33:40;;;;;;;7.43;5.22;;;18.70;99.90;;;;;;5012585;28;20034;-37
2023/06/22 01:36:07;;;;;;;10.02;5.60;;;18.70;99.90;;;;;;5013016;28;20393;-39
2023/06/22 01:38:33;;;;;;;7.55;4.78;;;18.70;99.90;;;;;;5012620;28;20121;-38
2023/06/22 01:41:00;;;;;;;8.18;5.28;;;18.70;99.90;;;;;;5012609;28;20045;-39
2023/06/22 01:43:27;;;;;;;10.13;5.57;;;18.60;99.90;;;;;;5012628;28;20499;-40
2023/06/22 01:45:54;;;;;;;8.57;5.60;;;18.60;99.90;;;;;;5012499;28;20498;-37
2023/06/22 01:48:21;;;;;;;13.20;6.82;;;18.60;99.90;;;;;;5012606;28;20061;-38
2023/06/22 01:50:47;;;;;;;9.98;5.97;;;18.50;99.90;;;;;;5012744;28;20097;-38
2023/06/22 01:53:13;;;;;;;8.93;6.05;;;18.50;99.90;;;;;;5012451;28;20490;-60
2023/06/22 01:55:38;;;;;;;9.57;5.63;;;18.50;99.90;;;;;;5012479;28;20030;-39
2023/06/22 01:58:04;;;;;;;9.57;6.20;;;18.50;99.90;;;;;;5012455;28;20036;-39
2023/06/22 02:00:34;;;;;;;7.50;4.93;;;18.40;99.90;;;;;;5012656;28;20026;-37
2023/06/22 02:03:05;;;;;;;9.52;5.88;;;18.40;99.90;;;;;;5012465;28;20033;-45
2023/06/22 02:05:49;;;;;;;10.80;5.43;;;18.40;99.90;;;;;;5014130;28;20103;-33
2023/06/22 02:08:47;;;;;;;11.18;5.75;;;18.50;99.90;;;;;;5016073;28;20025;-35
2023/06/22 02:11:14;;;;;;;10.23;5.80;;;18.50;99.90;;;;;;5015565;28;20022;-34
2023/06/22 02:13:42;;;;;;;8.95;6.15;;;18.40;99.90;;;;;;5015832;28;20033;-34
2023/06/22 02:16:13;;;;;;;11.90;5.63;;;18.40;99.90;;;;;;5015997;28;20079;-32
2023/06/22 02:18:40;;;;;;;10.93;5.85;;;18.50;99.90;;;;;;5014468;28;20060;-30
2023/06/22 02:21:06;;;;;;;14.32;6.45;;;18.40;99.90;;;;;;5014443;28;20018;-30
2023/06/22 02:23:35;;;;;;;12.75;6.97;;;18.40;99.90;;;;;;5015545;28;20033;-29
2023/06/22 02:26:02;;;;;;;9.75;6.03;;;18.40;99.90;;;;;;5015441;28;20040;-30
2023/06/22 02:28:27;;;;;;;10.13;6.72;;;18.40;99.90;;;;;;5015489;28;20466;-31
2023/06/22 02:30:53;;;;;;;12.32;6.20;;;18.40;99.90;;;;;;5015428;28;20097;-31
2023/06/22 02:33:19;;;;;;;9.57;6.60;;;18.40;99.90;;;;;;5015279;28;20101;-31
2023/06/22 02:35:48;;;;;;;11.07;6.63;;;18.30;99.90;;;;;;5015679;28;20533;-30
2023/06/22 02:38:14;;;;;;;11.90;6.65;;;18.40;99.90;;;;;;5015544;28;20108;-30
2023/06/22 02:40:40;;;;;;;10.82;6.20;;;18.30;99.90;;;;;;5015251;28;20018;-31
2023/06/22 02:43:06;;;;;;;9.05;6.20;;;18.30;99.90;;;;;;5015500;28;20497;-32
2023/06/22 02:45:31;;;;;;;8.70;5.88;;;18.30;99.90;;;;;;5015046;28;20029;-31
2023/06/22 02:47:57;;;;;;;11.27;7.03;;;18.20;99.90;;;;;;5015104;28;20033;-31
2023/06/22 02:50:23;;;;;;;12.60;7.15;;;18.30;99.90;;;;;;5015080;28;20029;-35
2023/06/22 02:52:49;;;;;;;10.43;6.30;;;18.20;99.90;;;;;;5013827;28;20030;-29
2023/06/22 02:55:15;;;;;;;8.52;6.07;;;18.30;99.90;;;;;;5015253;28;20029;-30
2023/06/22 02:57:43;;;;;;;10.55;6.10;;;18.20;99.90;;;;;;5014968;28;20026;-31
2023/06/22 03:00:17;;;;;;;13.07;6.65;;;18.20;99.90;;;;;;5015183;28;20488;-34
2023/06/22 03:02:47;;;;;;;10.95;6.60;;;18.10;99.90;;;;;;5015112;28;20446;-31
2023/06/22 03:05:14;;;;;;;10.18;6.50;;;18.10;99.90;;;;;;5014740;28;20061;-33
2023/06/22 03:07:41;;;;;;;12.85;6.45;;;18.10;99.90;;;;;;5015032;28;20478;-30
2023/06/22 03:10:09;;;;;;;10.00;5.50;;;18.10;99.90;;;;;;5014745;28;20018;-35
2023/06/22 03:12:34;;;;;;;10.90;6.40;;;18.10;99.90;;;;;;5014277;28;20042;-33
2023/06/22 03:15:00;;;;;;;13.15;7.35;;;18.10;99.90;;;;;;5014557;28;20385;-35
2023/06/22 03:17:26;;;;;;;14.85;6.15;;;18.00;99.90;;;;;;5014469;28;20022;-33
2023/06/22 03:19:51;;;;;;;10.48;6.53;;;18.00;99.90;;;;;;5014495;28;20058;-32
2023/06/22 03:22:17;;;;;;;17.80;6.85;;;17.90;99.90;;;;;;5014467;28;20060;-31
2023/06/22 03:24:42;;;;;;;7.85;6.28;;;17.90;99.90;;;;;;5014291;28;20033;-32
2023/06/22 03:27:08;;;;;;;11.30;6.03;;;17.90;99.90;;;;;;5014407;28;20501;-32
2023/06/22 03:29:34;;;;;;;14.13;6.80;;;18.00;99.90;;;;;;5014339;28;20029;-32
2023/06/22 03:31:59;;;;;;;12.15;6.45;;;17.90;99.90;;;;;;5014603;28;20547;-31
2023/06/22 03:34:25;;;;;;;13.80;7.40;;;17.90;99.90;;;;;;5014138;28;20475;-33
2023/06/22 03:36:51;;;;;;;10.80;6.82;;;17.90;99.90;;;;;;5014228;28;20022;-32
2023/06/22 03:39:16;;;;;;;9.25;6.97;;;17.90;99.90;;;;;;5014167;28;20030;-32
2023/06/22 03:41:42;;;;;;;10.68;6.32;;;17.80;99.90;;;;;;5014120;28;20021;-42
2023/06/22 03:44:12;;;;;;;11.20;6.35;;;17.80;99.90;;;;;;5012873;28;20050;-35
2023/06/22 03:46:37;;;;;;;10.35;6.85;;;17.90;99.90;;;;;;5013965;28;20072;-30
2023/06/22 03:49:03;;;;;;;9.18;6.13;;;17.80;99.90;;;;;;5013989;28;20542;-32
2023/06/22 03:51:29;;;;;;;10.48;6.47;;;17.80;99.90;;;;;;5012655;28;20028;-30
2023/06/22 03:53:55;;;;;;;14.48;7.82;;;17.80;99.90;;;;;;5013959;28;20021;-33
2023/06/22 03:56:20;;;;;;;11.57;7.13;;;17.80;99.90;;;;;;5013791;28;20084;-32
2023/06/22 03:58:46;;;;;;;14.63;7.10;;;17.80;99.90;;;;;;5013845;28;20018;-32
2023/06/22 04:01:12;;;;;;;12.48;6.60;;;17.80;99.90;;;;;;5013783;28;20068;-31
2023/06/22 04:03:38;;;;;;;11.43;6.45;;;17.80;99.90;;;;;;5014013;28;20022;-29
2023/06/22 04:06:04;;;;;;;12.02;6.07;;;17.90;99.90;;;;;;5013630;28;20113;-31
2023/06/22 04:08:30;;;;;;;12.70;7.18;;;17.80;99.90;;;;;;5013683;28;20077;-33
2023/06/22 04:10:56;;;;;;;10.10;7.00;;;17.80;99.90;;;;;;5013640;28;20049;-31
2023/06/22 04:13:22;;;;;;;18.15;6.82;;;17.80;99.90;;;;;;5012277;28;20042;-31
2023/06/22 04:15:47;;;;;;;9.20;5.82;;;17.80;99.90;;;;;;5013506;28;20022;-31
2023/06/22 04:18:13;;;;;;;10.18;6.72;;;17.90;99.90;;;;;;5013493;28;20483;-43
2023/06/22 04:20:39;;;;;;;15.25;7.45;;;17.90;99.90;;;;;;5013421;28;20422;-35
2023/06/22 04:23:04;;;;;;;11.70;6.47;;;17.90;99.90;;;;;;5013458;28;20050;-32
2023/06/22 04:25:30;;;;;;;11.82;6.07;;;17.90;99.90;;;;;;5013238;28;20113;-30
2023/06/22 04:27:56;;;;;;;12.38;6.47;;;17.90;99.90;;;;;;5012848;28;20482;-35
2023/06/22 04:30:21;;;;;;;13.85;7.47;;;17.90;99.90;;;;;;5013277;28;20018;-36
2023/06/22 04:32:56;;;;;;;13.15;7.10;;;17.90;99.90;;;;;;5013532;28;20363;-33
2023/06/22 04:35:22;;;;;;;18.90;8.18;;;17.90;99.90;;;;;;5013155;28;20053;-33
2023/06/22 04:37:49;;;;;;;16.80;7.50;;;18.00;99.90;;;;;;5013470;28;20034;-31
2023/06/22 04:40:15;;;;;;;12.30;7.15;;;18.00;99.90;;;;;;5013202;28;20033;-43
2023/06/22 04:42:43;;;;;;;17.00;7.95;;;18.10;99.90;;;;;;5013156;28;20033;-34
2023/06/22 04:45:10;;;;;;;11.77;6.40;;;18.20;99.90;;;;;;5013286;28;20030;-36
2023/06/22 04:47:39;;;;;;;11.18;6.75;;;18.20;99.90;;;;;;5013335;28;20025;-33
2023/06/22 04:50:05;;;;;;;9.50;6.10;;;18.30;99.90;;;;;;5013063;28;20475;-37
2023/06/22 04:52:31;;;;;;;13.67;7.90;;;18.40;99.90;;;;;;5013042;28;20022;-35
2023/06/22 04:54:59;;;;;;;12.43;7.18;;;18.40;99.90;;;;;;5013030;28;20037;-35
2023/06/22 04:57:31;;;;;;;10.60;7.18;;;18.40;99.90;;;;;;5011725;28;20026;-31
2023/06/22 05:00:01;;;;;;;15.68;6.95;;;18.50;99.90;;;;;;5013258;28;20021;-31
2023/06/22 05:02:27;;;;;;;15.05;8.10;;;18.50;99.90;;;;;;5012944;28;20030;-32
2023/06/22 05:04:56;;;;;;;14.25;7.90;;;18.50;99.90;;;;;;5012928;28;20506;-38
2023/06/22 05:07:25;;;;;;;14.20;7.47;;;18.50;99.90;;;;;;5012761;28;20018;-56
2023/06/22 05:09:51;;;;;;;16.42;9.13;;;18.60;99.90;;;;;;5013030;28;20389;-38
2023/06/22 05:12:16;;;;;;;12.75;7.47;;;18.60;99.90;;;;;;5013099;28;20033;-37
2023/06/22 05:14:42;;;;;;;17.88;8.82;;;18.60;99.90;;;;;;5012813;28;20107;-37
2023/06/22 05:17:13;;;;;;;15.95;9.23;;;18.70;99.90;;;;;;5012858;28;20501;-37
2023/06/22 05:19:39;;;;;;;13.88;8.93;;;18.60;99.90;;;;;;5012910;28;20026;-37
2023/06/22 05:22:06;;;;;;;20.50;10.32;;;18.60;99.90;;;;;;5012742;28;20029;-38
2023/06/22 05:24:32;;;;;;;19.52;10.15;;;18.50;99.90;;;;;;5011353;28;20038;-38
2023/06/22 05:26:57;;;;;;;22.15;10.57;;;18.50;99.90;;;;;;5028011;28;20044;-38
2023/06/22 05:29:23;;;;;;;15.45;8.70;;;18.60;99.90;;;;;;5012675;28;20076;-37
2023/06/22 05:31:49;;;;;;;21.17;10.23;;;18.60;99.90;;;;;;5013234;28;20084;-37
2023/06/22 05:34:15;;;;;;;21.38;10.80;;;18.70;99.90;;;;;;5012657;28;20093;-38
2023/06/22 05:36:40;;;;;;;18.88;9.93;;;18.80;99.90;;;;;;5012633;28;20078;-38
2023/06/22 05:39:13;;;;;;;18.90;10.30;;;18.90;99.90;;;;;;5011342;28;20054;-66
2023/06/22 05:41:39;;;;;;;19.15;9.45;;;19.00;99.90;;;;;;5015140;28;20030;-61
2023/06/22 05:44:05;;;;;;;22.88;11.57;;;19.10;99.90;;;;;;5016373;28;20083;-41
2023/06/22 05:46:30;;;;;;;18.83;10.85;;;19.20;99.90;;;;;;5016160;28;20033;-39
2023/06/22 05:48:56;;;;;;;16.77;10.90;;;19.30;99.90;;;;;;5016288;28;20105;-36
2023/06/22 05:51:22;;;;;;;19.13;11.32;;;19.40;99.90;;;;;;5016201;28;20373;-53
2023/06/22 05:53:49;;;;;;;20.38;12.40;;;19.50;99.90;;;;;;5016128;28;20497;-37
2023/06/22 05:56:15;;;;;;;;;;;19.50;99.90;;;;;;5016558;28;20022;-38
2023/06/22 05:58:41;;;;;;;23.05;11.82;;;19.50;99.90;;;;;;5016064;28;19906;-37
2023/06/22 06:01:06;;;;;;;16.35;10.93;;;19.60;99.90;;;;;;5016021;28;20442;-38
2023/06/22 06:03:32;;;;;;;22.15;12.40;;;19.80;99.90;;;;;;5016295;28;20026;-38
2023/06/22 06:05:58;;;;;;;21.50;12.23;;;19.70;99.90;;;;;;5015851;28;20076;-37
2023/06/22 06:08:23;;;;;;;30.63;13.15;;;19.60;99.90;;;;;;5015935;28;20390;-38
2023/06/22 06:10:49;;;;;;;22.83;12.70;;;19.80;99.90;;;;;;5015776;28;20097;-37
2023/06/22 06:13:15;;;;;;;24.98;12.27;;;20.10;99.90;;;;;;5015602;28;20045;-37
2023/06/22 06:15:40;;;;;;;20.88;12.25;;;20.50;99.90;;;;;;5015972;28;20026;-38
2023/06/22 06:18:06;;;;;;;22.33;13.38;;;21.00;99.90;;;;;;5015692;28;20034;-38
2023/06/22 06:20:32;;;;;;;21.75;12.38;;;21.10;99.90;;;;;;5015691;28;20029;-38
2023/06/22 06:22:58;;;;;;;24.13;13.02;;;21.00;99.90;;;;;;5015632;28;20479;-37
2023/06/22 06:25:24;;;;;;;27.58;13.27;;;20.90;99.90;;;;;;5014161;28;20116;-37
2023/06/22 06:27:51;;;;;;;27.15;15.38;;;20.80;99.90;;;;;;5015782;28;20097;-38
2023/06/22 06:30:18;;;;;;;29.65;14.50;;;20.90;99.90;;;;;;5015420;28;20021;-40
2023/06/22 06:32:47;;;;;;;27.95;14.35;;;21.00;99.90;;;;;;5015689;28;20026;-57
2023/06/22 06:35:16;;;;;;;20.40;13.18;;;21.30;99.90;;;;;;5015278;28;20026;-56
2023/06/22 06:37:44;;;;;;;23.42;13.75;;;21.60;99.90;;;;;;5015259;28;20479;-38
2023/06/22 06:40:11;;;;;;;22.83;14.18;;;21.70;99.90;;;;;;5015416;28;20030;-40
2023/06/22 06:42:44;;;;;;;27.92;12.48;;;21.70;99.90;;;;;;5015706;28;20108;-39
2023/06/22 06:45:10;;;;;;;22.13;13.45;;;21.60;99.90;;;;;;5015140;28;20034;-38
2023/06/22 06:47:36;;;;;;;19.55;12.60;;;21.90;99.90;;;;;;5015230;28;20032;-44
2023/06/22 06:50:04;;;;;;;23.77;14.75;;;22.10;99.90;;;;;;5015011;28;20093;-37
2023/06/22 06:52:29;;;;;;;27.88;14.48;;;22.20;99.90;;;;;;5014897;28;20022;-37
2023/06/22 06:54:55;;;;;;;24.27;13.18;;;22.40;99.90;;;;;;5015064;28;20398;-39
2023/06/22 06:57:22;;;;;;;24.05;13.63;;;22.20;99.90;;;;;;5014850;28;20052;-40
2023/06/22 06:59:48;;;;;;;22.20;12.20;;;22.20;99.90;;;;;;5014846;28;20057;-39
2023/06/22 07:02:15;;;;;;;20.77;12.45;;;22.40;99.90;;;;;;5014909;28;20072;-40
2023/06/22 07:04:41;;;;;;;25.77;13.60;;;22.70;99.90;;;;;;5014791;28;20079;-39
2023/06/22 07:07:06;;;;;;;20.58;13.50;;;22.80;99.90;;;;;;5014772;28;20416;-39
2023/06/22 07:09:32;;;;;;;23.08;12.93;;;22.90;99.90;;;;;;5015031;28;20029;-40
2023/06/22 07:11:58;;;;;;;18.63;12.75;;;23.00;99.90;;;;;;5014554;28;20037;-40
2023/06/22 07:14:23;;;;;;;27.75;13.20;;;23.10;99.90;;;;;;5014596;28;20018;-38
2023/06/22 07:16:49;;;;;;;22.95;12.70;;;23.30;99.90;;;;;;5013372;28;20501;-38
2023/06/22 07:19:17;;;;;;;24.40;13.43;;;23.70;99.90;;;;;;5014608;28;20037;-40
2023/06/22 07:21:43;;;;;;;22.73;12.70;;;24.10;99.90;;;;;;5014528;28;20101;-40
2023/06/22 07:24:09;;;;;;;23.58;12.32;;;24.00;99.90;;;;;;5013223;28;20113;-40
2023/06/22 07:26:34;;;;;;;18.60;12.10;;;24.50;99.90;;;;;;5014383;28;20105;-39
2023/06/22 07:29:00;;;;;;;20.98;12.88;;;25.00;99.90;;;;;;5014659;28;20146;-40
2023/06/22 07:31:26;;;;;;;21.85;11.13;;;25.10;99.90;;;;;;5014359;28;20068;-39
2023/06/22 07:33:52;;;;;;;17.38;10.68;;;25.60;99.90;;;;;;5014218;28;20020;-55
2023/06/22 07:36:18;;;;;;;17.58;7.97;;;25.80;99.90;;;;;;5014253;28;20104;-40
2023/06/22 07:38:44;;;;;;;11.68;8.18;;;26.20;99.90;;;;;;5014236;28;20386;-39
2023/06/22 07:41:10;;;;;;;14.30;10.70;;;27.00;99.90;;;;;;5014086;28;20022;-40
2023/06/22 07:43:36;;;;;;;12.00;6.43;;;27.30;99.90;;;;;;5014118;28;20103;-41
2023/06/22 07:46:06;;;;;;;11.40;8.57;;;27.20;99.90;;;;;;5012846;28;20116;-38
2023/06/22 07:48:31;;;;;;;12.02;7.38;;;26.80;99.90;;;;;;5014035;28;20026;-39
2023/06/22 07:50:57;;;;;;;18.00;8.55;;;26.60;99.90;;;;;;5013968;28;20390;-37
2023/06/22 07:53:23;;;;;;;12.95;8.73;;;26.60;99.90;;;;;;5013938;28;20429;-37
2023/06/22 07:55:50;;;;;;;11.63;8.00;;;26.40;99.90;;;;;;5014117;28;20030;-38
2023/06/22 07:58:16;;;;;;;15.70;9.17;;;26.20;99.90;;;;;;5013781;28;20074;-39
2023/06/22 08:00:41;;;;;;;11.95;8.60;;;26.00;99.90;;;;;;5013800;28;20287;-39
2023/06/22 08:03:07;;;;;;;11.30;6.72;;;25.60;99.90;;;;;;5013080;28;20022;-52
2023/06/22 08:05:33;;;;;;;14.82;7.75;;;25.20;99.90;;;;;;5013620;28;20054;-39
2023/06/22 08:07:58;;;;;;;9.02;6.90;;;25.30;99.90;;;;;;5012493;28;20022;-39
2023/06/22 08:10:24;;;;;;;8.82;6.18;;;25.50;99.90;;;;;;5013913;28;20467;-37
2023/06/22 08:12:51;;;;;;;13.20;5.60;;;25.80;99.90;;;;;;5013561;28;20104;-36
2023/06/22 08:15:17;;;;;;;;;;;25.90;99.90;;;;;;5014250;28;20049;-37
2023/06/22 08:17:45;;;;;;;9.13;6.37;;;26.30;99.90;;;;;;5013491;28;19906;-39
2023/06/22 08:20:11;;;;;;;10.43;6.15;;;26.50;99.90;;;;;;5013439;28;20064;-38
2023/06/22 08:22:38;;;;;;;12.32;8.05;;;26.70;99.90;;;;;;5013432;28;20018;-38
2023/06/22 08:25:04;;;;;;;9.48;5.70;;;26.90;99.90;;;;;;5013588;28;20471;-39
2023/06/22 08:27:33;;;;;;;11.57;7.03;;;27.20;99.90;;;;;;5013406;28;20037;-38
2023/06/22 08:30:00;;;;;;;10.63;6.63;;;26.90;99.90;;;;;;5013327;28;20084;-38
2023/06/22 08:32:29;;;;;;;10.63;6.47;;;27.10;99.90;;;;;;5013306;28;20029;-40
2023/06/22 08:34:55;;;;;;;8.70;5.50;;;27.10;99.90;;;;;;5013234;28;20124;-41
2023/06/22 08:37:24;;;;;;;11.18;6.47;;;27.10;99.90;;;;;;5013224;28;20022;-39
2023/06/22 08:39:50;;;;;;;8.95;6.13;;;27.10;99.90;;;;;;5028479;28;20533;-38
2023/06/22 08:42:16;;;;;;;8.60;6.65;;;27.30;99.90;;;;;;5013278;28;20037;-38
2023/06/22 08:44:41;;;;;;;11.15;6.90;;;27.00;99.90;;;;;;5013124;28;20028;-39
2023/06/22 08:47:07;;;;;;;10.25;7.15;;;26.70;99.90;;;;;;5013185;28;20050;-58
2023/06/22 08:49:33;;;;;;;9.15;6.57;;;26.10;99.90;;;;;;5013032;28;20030;-38
2023/06/22 08:51:59;;;;;;;21.60;9.38;;;25.80;99.90;;;;;;5012914;28;20014;-38
2023/06/22 08:54:24;;;;;;;13.95;8.45;;;25.50;99.90;;;;;;5012978;28;20097;-39
2023/06/22 08:56:50;;;;;;;16.23;7.70;;;25.40;99.90;;;;;;5012963;28;20494;-38
2023/06/22 08:59:16;;;;;;;13.20;8.30;;;25.30;99.90;;;;;;5013016;28;20049;-42
2023/06/22 09:01:45;;;;;;;13.40;7.15;;;25.20;99.90;;;;;;5012947;28;20101;-39
2023/06/22 09:04:11;;;;;;;12.77;8.23;;;25.10;99.90;;;;;;5028132;28;20034;-38
2023/06/22 09:06:41;;;;;;;16.08;8.73;;;25.00;99.90;;;;;;5012944;28;20385;-39
2023/06/22 09:09:06;;;;;;;10.00;7.07;;;24.80;99.90;;;;;;5012859;28;20025;-38
2023/06/22 09:11:32;;;;;;;9.88;6.00;;;24.70;99.90;;;;;;5012919;28;20026;-37
2023/06/22 09:13:58;;;;;;;8.18;6.45;;;24.60;99.90;;;;;;5013982;28;20486;-38
2023/06/22 09:16:23;;;;;;;9.52;6.28;;;24.60;99.90;;;;;;5015647;28;20021;-38
2023/06/22 09:18:49;;;;;;;12.25;6.60;;;24.50;99.90;;;;;;5016906;28;20034;-40
2023/06/22 09:21:15;;;;;;;8.73;6.32;;;24.60;99.90;;;;;;5016806;28;20509;-40
2023/06/22 09:23:40;;;;;;;9.68;5.60;;;24.50;99.90;;;;;;5015515;28;20033;-42
2023/06/22 09:26:06;;;;;;;7.47;4.70;;;24.40;99.90;;;;;;5016678;28;20033;-40
2023/06/22 09:28:33;;;;;;;7.50;4.43;;;24.30;99.90;;;;;;5031887;28;20128;-46
2023/06/22 09:30:59;;;;;;;8.85;4.38;;;24.20;99.90;;;;;;5016664;28;20033;-42
2023/06/22 09:33:26;;;;;;;4.47;3.77;;;24.20;99.90;;;;;;5016830;28;20018;-36
2023/06/22 09:35:52;;;;;;;5.03;4.27;;;24.20;99.90;;;;;;5016624;28;20505;-39
2023/06/22 09:38:17;;;;;;;5.65;3.80;;;24.30;99.90;;;;;;5016527;28;20026;-37
2023/06/22 09:40:43;;;;;;;4.88;4.15;;;24.40;99.90;;;;;;5016492;28;20026;-35
2023/06/22 09:43:09;;;;;;;8.52;4.40;;;24.50;99.90;;;;;;5016489;28;20030;-39
2023/06/22 09:45:34;;;;;;;12.55;7.93;;;24.60;99.90;;;;;;5016322;28;20030;-38
2023/06/22 09:48:00;;;;;;;10.10;7.88;;;24.60;99.90;;;;;;5016277;28;20079;-33
2023/06/22 09:50:26;;;;;;;10.50;7.50;;;24.60;99.90;;;;;;5016230;28;20026;-37
2023/06/22 09:52:54;;;;;;;8.90;6.22;;;24.70;99.90;;;;;;5015000;28;20030;-33
2023/06/22 09:55:20;;;;;;;5.75;4.70;;;24.80;99.90;;;;;;5016438;28;20496;-33
2023/06/22 09:57:47;;;;;;;8.55;4.25;;;24.90;99.90;;;;;;5016231;28;20026;-32
2023/06/22 10:00:13;;;;;;;7.20;5.15;;;24.90;99.90;;;;;;5016122;28;20033;-32
2023/06/22 10:02:40;;;;;;;14.90;8.40;;;25.00;99.90;;;;;;5016057;28;20025;-32
2023/06/22 10:05:07;;;;;;;;;;;24.80;99.90;;;;;;5016308;28;20088;-31
2023/06/22 10:07:33;;;;;;;13.65;6.85;;;24.60;99.90;;;;;;5016167;28;19913;-32
2023/06/22 10:09:58;;;;;;;11.73;7.43;;;24.50;99.90;;;;;;5016121;28;20474;-36
2023/06/22 10:12:27;;;;;;;11.63;7.30;;;24.40;99.90;;;;;;5014237;28;20054;-35
2023/06/22 10:14:53;;;;;;;12.02;7.47;;;24.30;99.90;;;;;;5015773;28;20038;-36
2023/06/22 10:17:19;;;;;;;9.43;6.20;;;24.20;99.90;;;;;;5015742;28;20083;-32
2023/06/22 10:19:44;;;;;;;11.43;6.55;;;24.10;99.90;;;;;;5015974;28;20030;-30
2023/06/22 10:22:10;;;;;;;9.85;6.43;;;24.10;99.90;;;;;;5015725;28;20037;-44
2023/06/22 10:24:35;;;;;;;12.35;5.72;;;24.10;99.90;;;;;;5015735;28;20038;-32
2023/06/22 10:27:01;;;;;;;10.48;5.75;;;24.00;99.90;;;;;;5014853;28;20025;-32
2023/06/22 10:29:27;;;;;;;8.15;5.10;;;24.00;99.90;;;;;;5015557;28;20044;-32
2023/06/22 10:31:52;;;;;;;12.20;5.15;;;24.00;99.90;;;;;;5015477;28;20479;-31
2023/06/22 10:34:18;;;;;;;7.88;4.78;;;24.00;99.90;;;;;;5015316;28;20033;-34
2023/06/22 10:36:47;;;;;;;6.25;5.13;;;24.00;99.90;;;;;;5015372;28;20479;-33
2023/06/22 10:39:12;;;;;;;7.45;4.20;;;24.10;99.90;;;;;;5015544;28;20026;-37
2023/06/22 10:41:38;;;;;;;8.95;4.10;;;24.10;99.90;;;;;;5015336;28;20040;-34
2023/06/22 10:44:04;;;;;;;10.95;4.20;;;24.20;99.90;;;;;;5015237;28;20390;-34
2023/06/22 10:46:29;;;;;;;7.55;4.53;;;24.20;99.90;;;;;;5030453;28;20030;-32
2023/06/22 10:48:56;;;;;;;6.93;4.20;;;24.20;99.90;;;;;;5015442;28;20029;-31
2023/06/22 10:51:22;;;;;;;;;;;24.20;99.90;;;;;;5015779;28;20398;-36
2023/06/22 10:53:48;;;;;;;7.38;4.20;;;24.10;99.90;;;;;;5015168;28;19916;-32
2023/06/22 10:56:13;;;;;;;5.47;3.90;;;24.10;99.90;;;;;;5015332;28;20104;-33
2023/06/22 10:58:39;;;;;;;6.13;3.58;;;24.00;99.90;;;;;;5015039;28;20033;-37
2023/06/22 11:01:04;;;;;;;7.00;3.33;;;24.00;99.90;;;;;;5014957;28;20022;-33
2023/06/22 11:03:30;;;;;;;6.22;3.60;;;24.10;99.90;;;;;;5014896;28;20048;-32
2023/06/22 11:05:56;;;;;;;7.80;3.65;;;24.10;99.90;;;;;;5014813;28;20479;-36
2023/06/22 11:08:21;;;;;;;6.22;4.25;;;24.10;99.90;;;;;;5013516;28;20042;-32
2023/06/22 11:10:47;;;;;;;6.15;3.80;;;24.20;99.90;;;;;;5015070;28;20018;-32
2023/06/22 11:13:12;;;;;;;8.52;3.53;;;24.10;99.90;;;;;;5014552;28;20494;-35
2023/06/22 11:15:39;;;;;;;5.80;3.58;;;24.00;99.90;;;;;;5014726;28;20029;-32
2023/06/22 11:18:05;;;;;;;5.45;3.45;;;23.90;99.90;;;;;;5014566;28;20033;-33
2023/06/22 11:20:31;;;;;;;6.22;3.50;;;24.00;99.90;;;;;;5014591;28;20029;-36
2023/06/22 11:22:57;;;;;;;9.45;4.10;;;24.00;99.90;;;;;;5014599;28;20026;-37
2023/06/22 11:25:22;;;;;;;3.78;3.15;;;24.00;99.90;;;;;;5014388;28;20545;-32
2023/06/22 11:27:48;;;;;;;6.28;3.60;;;24.00;99.90;;;;;;5014426;28;20030;-33
2023/06/22 11:30:14;;;;;;;5.32;3.63;;;24.00;99.90;;;;;;5013119;28;20069;-31
2023/06/22 11:32:39;;;;;;;5.35;3.38;;;24.00;99.90;;;;;;5014643;28;20018;-29
2023/06/22 11:35:05;;;;;;;6.40;3.13;;;23.90;99.90;;;;;;5014153;28;20064;-34
2023/06/22 11:37:31;;;;;;;7.18;3.78;;;23.70;99.90;;;;;;5013181;28;20109;-30
2023/06/22 11:39:57;;;;;;;10.07;4.05;;;23.60;99.90;;;;;;5014263;28;20034;-30
2023/06/22 11:42:23;;;;;;;8.60;4.50;;;23.50;99.90;;;;;;5014438;28;20360;-31
2023/06/22 11:44:49;;;;;;;8.85;5.88;;;23.60;99.90;;;;;;5014323;28;20076;-31
2023/06/22 11:47:15;;;;;;;8.80;5.18;;;23.50;99.90;;;;;;5014090;28;20104;-31
2023/06/22 11:49:41;;;;;;;7.63;5.50;;;23.50;99.90;;;;;;5012720;28;20056;-32
2023/06/22 11:52:07;;;;;;;7.35;5.90;;;23.60;99.90;;;;;;5014019;28;20018;-31
2023/06/22 11:54:33;;;;;;;9.25;5.85;;;23.60;99.90;;;;;;5014001;28;20087;-38
2023/06/22 11:56:59;;;;;;;11.02;6.07;;;23.60;99.90;;;;;;5013870;28;20026;-33
2023/06/22 11:59:25;;;;;;;13.25;6.15;;;23.60;99.90;;;;;;5014097;28;20026;-33
2023/06/22 12:01:51;;;;;;;7.13;5.22;;;23.50;99.90;;;;;;5013758;28;20491;-36
2023/06/22 12:04:17;;;;;;;10.07;5.43;;;23.50;99.90;;;;;;5013657;28;20033;-32
2023/06/22 12:06:43;;;;;;;9.63;5.22;;;23.50;99.90;;;;;;5013650;28;20022;-31
2023/06/22 12:09:09;;;;;;;8.60;5.95;;;23.40;99.90;;;;;;5013858;28;20108;-32
2023/06/22 12:11:35;;;;;;;17.40;5.22;;;23.40;99.90;;;;;;5013649;28;20026;-32
2023/06/22 12:14:02;;;;;;;5.75;4.60;;;23.50;99.90;;;;;;5013631;28;20371;-31
2023/06/22 12:16:30;;;;;;;4.60;4.13;;;23.50;99.90;;;;;;5013853;28;20050;-34
2023/06/22 12:18:56;;;;;;;8.80;5.00;;;23.50;99.90;;;;;;5013660;28;20487;-30
2023/06/22 12:21:21;;;;;;;7.80;4.78;;;23.60;99.90;;;;;;5013542;28;20069;-33
2023/06/22 12:23:47;;;;;;;9.27;5.57;;;23.60;99.90;;;;;;5013375;28;20479;-34
2023/06/22 12:26:13;;;;;;;9.13;5.00;;;23.60;99.90;;;;;;5013381;28;20100;-30
2023/06/22 12:28:38;;;;;;;6.10;4.82;;;23.60;99.90;;;;;;5013350;28;20034;-33
2023/06/22 12:31:04;;;;;;;20.17;5.90;;;23.60;99.90;;;;;;5013374;28;20026;-30
2023/06/22 12:33:30;;;;;;;12.25;5.50;;;23.50;99.90;;;;;;5013313;28;20018;-30
2023/06/22 12:35:56;;;;;;;9.80;6.13;;;23.50;99.90;;;;;;5011981;28;20075;-35
2023/06/22 12:38:22;;;;;;;6.55;5.15;;;23.50;99.90;;;;;;5013273;28;20041;-30